Time;durP1;ratioP1;P1;durP2;ratioP2;P2;SDS_P1;SDS_P2;PMS_P1;PMS_P2;Temp;Humidity;BMP_temperature;BMP_pressure;BME280_temperature;BME280_humidity;BME280_pressure;Samples;Min_cycle;Max_cycle;Signal;HPM_P1;HPM_P2
2024/01/17 00:01:27;;;;;;;62.20;19.50;;;-7.20;99.90;;;;;;5003937;28;20036;-81
2024/01/17 00:03:53;;;;;;;55.70;19.10;;;-7.20;99.90;;;;;;5004799;28;20046;-81
2024/01/17 00:06:18;;;;;;;46.77;15.90;;;-7.20;99.90;;;;;;5004521;28;20042;-81
2024/01/17 00:08:44;;;;;;;43.60;15.43;;;-7.30;99.90;;;;;;5004981;28;20037;-82
2024/01/17 00:11:10;;;;;;;35.53;13.77;;;-7.20;99.90;;;;;;4986457;28;20038;-81
2024/01/17 00:13:35;;;;;;;32.40;13.03;;;-7.20;99.90;;;;;;5005804;28;20056;-81
2024/01/17 00:16:01;;;;;;;28.00;12.83;;;-7.20;99.90;;;;;;5002581;28;20277;-81
2024/01/17 00:18:26;;;;;;;27.77;11.43;;;-7.10;99.90;;;;;;4997690;28;20029;-81
2024/01/17 00:20:52;;;;;;;29.03;11.93;;;-7.10;99.90;;;;;;5004560;28;20045;-81
2024/01/17 00:23:17;;;;;;;28.30;12.30;;;-7.00;99.90;;;;;;5004502;28;20353;-81
2024/01/17 00:25:43;;;;;;;47.23;19.83;;;-7.00;99.90;;;;;;5004776;28;20063;-81
2024/01/17 00:28:08;;;;;;;31.93;13.50;;;-6.90;99.90;;;;;;5003382;28;20366;-82
2024/01/17 00:30:34;;;;;;;25.97;11.97;;;-6.90;99.90;;;;;;5004668;28;20519;-82
2024/01/17 00:32:59;;;;;;;26.97;11.93;;;-6.80;99.90;;;;;;4999795;28;20056;-81
2024/01/17 00:35:25;;;;;;;33.67;13.23;;;-6.80;99.90;;;;;;5004239;28;20030;-80
2024/01/17 00:37:51;;;;;;;26.67;13.00;;;-6.80;99.90;;;;;;5005277;28;20034;-81
2024/01/17 00:40:16;;;;;;;29.30;13.13;;;-6.70;99.90;;;;;;5004048;28;20057;-82
2024/01/17 00:42:42;;;;;;;31.77;13.80;;;-6.60;99.90;;;;;;5002059;28;20452;-82
2024/01/17 00:45:08;;;;;;;37.00;15.77;;;-6.60;99.90;;;;;;5004478;28;20102;-81
2024/01/17 00:47:34;;;;;;;31.43;13.77;;;-6.50;99.90;;;;;;5003429;28;20034;-81
2024/01/17 00:49:59;;;;;;;32.63;14.60;;;-6.50;99.90;;;;;;5003562;28;20257;-81
2024/01/17 00:52:25;;;;;;;27.63;12.30;;;-6.50;99.90;;;;;;5003341;28;21088;-81
2024/01/17 00:54:50;;;;;;;24.40;11.10;;;-6.40;99.90;;;;;;5001811;28;20855;-82
2024/01/17 00:57:16;;;;;;;21.00;10.67;;;-6.40;99.90;;;;;;5000252;28;20037;-81
2024/01/17 00:59:41;;;;;;;24.00;11.37;;;-6.40;99.90;;;;;;4999749;28;20049;-80
2024/01/17 01:02:07;;;;;;;21.20;10.17;;;-6.40;99.90;;;;;;5003480;28;20029;-82
2024/01/17 01:04:32;;;;;;;23.27;12.37;;;-6.30;99.90;;;;;;5002018;28;20038;-81
2024/01/17 01:06:58;;;;;;;27.90;12.63;;;-6.30;99.90;;;;;;5003752;28;20034;-81
2024/01/17 01:09:23;;;;;;;25.53;12.43;;;-6.30;99.90;;;;;;5002970;28;20696;-80
2024/01/17 01:11:49;;;;;;;26.87;11.47;;;-6.20;99.90;;;;;;5001584;28;20022;-80
2024/01/17 01:14:14;;;;;;;24.17;11.90;;;-6.20;99.90;;;;;;5003051;28;20439;-81
2024/01/17 01:16:41;;;;;;;29.57;13.50;;;-6.20;99.90;;;;;;5001233;28;20038;-81
2024/01/17 01:19:06;;;;;;;27.00;13.07;;;-6.20;99.90;;;;;;4999315;28;20064;-80
2024/01/17 01:21:32;;;;;;;21.87;11.53;;;-6.10;99.90;;;;;;5002050;28;20038;-81
2024/01/17 01:23:58;;;;;;;26.33;11.90;;;-6.10;99.90;;;;;;5002082;28;20022;-81
2024/01/17 01:26:23;;;;;;;25.80;11.73;;;-6.00;99.90;;;;;;5001412;28;20030;-81
2024/01/17 01:28:49;;;;;;;24.57;12.40;;;-6.00;99.90;;;;;;5003472;28;20129;-81
2024/01/17 01:31:14;;;;;;;26.37;12.73;;;-5.90;99.90;;;;;;5001736;28;20037;-81
2024/01/17 01:33:40;;;;;;;24.40;12.47;;;-5.90;99.90;;;;;;5006482;28;20030;-80
2024/01/17 01:36:05;;;;;;;25.53;11.83;;;-5.80;99.90;;;;;;5009563;28;20022;-80
2024/01/17 01:38:31;;;;;;;25.73;12.50;;;-5.80;99.90;;;;;;5005550;28;20037;-82
2024/01/17 01:40:58;;;;;;;26.10;12.20;;;-5.70;99.90;;;;;;5006378;28;20107;-81
2024/01/17 01:43:24;;;;;;;22.80;11.83;;;-5.60;99.90;;;;;;5006141;28;20029;-80
2024/01/17 01:46:05;;;;;;;23.87;11.67;;;-5.60;99.90;;;;;;5006843;28;20032;-81
2024/01/17 01:48:31;;;;;;;25.50;13.20;;;-5.50;99.90;;;;;;5005542;28;20080;-81
2024/01/17 01:50:58;;;;;;;25.53;13.20;;;-5.40;99.90;;;;;;5006063;28;20088;-81
2024/01/17 01:53:29;;;;;;;25.77;13.40;;;-5.40;99.90;;;;;;5006639;28;20037;-81
2024/01/17 01:55:56;;;;;;;21.87;11.43;;;-5.30;99.90;;;;;;5005496;28;20033;-81
2024/01/17 01:58:22;;;;;;;24.80;12.03;;;-5.30;99.90;;;;;;5006287;28;20026;-81
2024/01/17 02:00:49;;;;;;;24.20;12.00;;;-5.20;99.90;;;;;;5006769;28;20045;-81
2024/01/17 02:03:15;;;;;;;21.97;11.67;;;-5.10;99.90;;;;;;5003713;28;20505;-81
2024/01/17 02:05:42;;;;;;;22.57;11.30;;;-5.10;99.90;;;;;;5007936;28;20052;-81
2024/01/17 02:08:08;;;;;;;20.87;11.60;;;-5.00;99.90;;;;;;5006012;28;20140;-82
2024/01/17 02:10:35;;;;;;;21.30;11.40;;;-5.00;99.90;;;;;;5007155;28;20022;-81
2024/01/17 02:13:00;;;;;;;25.43;12.17;;;-4.90;99.90;;;;;;5005813;28;20033;-80
2024/01/17 02:15:26;;;;;;;22.83;12.30;;;-4.90;99.90;;;;;;5004414;28;20026;-82
2024/01/17 02:17:51;;;;;;;20.97;11.40;;;-4.80;99.90;;;;;;5003421;28;20034;-81
2024/01/17 02:20:17;;;;;;;20.97;11.53;;;-4.80;99.90;;;;;;5005883;28;20081;-81
2024/01/17 02:22:43;;;;;;;22.00;10.73;;;-4.70;99.90;;;;;;5005755;28;20094;-81
2024/01/17 02:25:08;;;;;;;22.93;11.43;;;-4.70;99.90;;;;;;5001459;28;20038;-80
2024/01/17 02:27:34;;;;;;;22.30;11.37;;;-4.60;99.90;;;;;;5004556;28;20025;-80
2024/01/17 02:29:59;;;;;;;20.93;11.80;;;-4.60;99.90;;;;;;5005814;28;20041;-81
2024/01/17 02:32:25;;;;;;;20.97;12.40;;;-4.50;99.90;;;;;;5005531;28;20037;-81
2024/01/17 02:34:51;;;;;;;21.93;12.77;;;-4.40;99.90;;;;;;4988145;28;20622;-82
2024/01/17 02:37:17;;;;;;;22.73;12.87;;;-4.40;99.90;;;;;;5004161;28;20101;-81
2024/01/17 02:39:43;;;;;;;23.37;12.43;;;-4.30;99.90;;;;;;5005999;28;20774;-82
2024/01/17 02:42:08;;;;;;;20.60;12.63;;;-4.30;99.90;;;;;;5007147;28;20025;-81
2024/01/17 02:44:34;;;;;;;20.67;11.63;;;-4.20;99.90;;;;;;5006351;28;20129;-81
2024/01/17 02:46:59;;;;;;;25.77;14.03;;;-4.10;99.90;;;;;;5007731;28;20510;-81
2024/01/17 02:49:25;;;;;;;25.50;12.30;;;-4.00;99.90;;;;;;5006919;28;20095;-82
2024/01/17 02:51:50;;;;;;;26.73;13.50;;;-3.90;99.90;;;;;;5007957;28;20018;-82
2024/01/17 02:54:16;;;;;;;26.23;13.23;;;-3.80;99.90;;;;;;5007578;28;20056;-81
2024/01/17 02:56:41;;;;;;;22.90;13.93;;;-3.70;99.90;;;;;;5003990;28;20052;-82
2024/01/17 02:59:07;;;;;;;23.03;12.97;;;-3.60;99.90;;;;;;5007071;28;20469;-81
2024/01/17 03:01:33;;;;;;;29.53;14.57;;;-3.50;99.90;;;;;;5007262;28;20111;-82
2024/01/17 03:03:59;;;;;;;21.60;12.53;;;-3.40;99.90;;;;;;5006772;28;20517;-82
2024/01/17 03:06:24;;;;;;;24.53;13.37;;;-3.30;99.90;;;;;;5007482;28;20052;-81
2024/01/17 03:08:50;;;;;;;22.40;13.17;;;-3.20;99.90;;;;;;5008274;28;20026;-82
2024/01/17 03:11:15;;;;;;;23.60;13.33;;;-3.10;99.90;;;;;;5004822;28;20022;-81
2024/01/17 03:13:41;;;;;;;25.43;12.90;;;-3.00;99.90;;;;;;5009768;28;20083;-82
2024/01/17 03:16:07;;;;;;;25.63;13.30;;;-3.00;99.90;;;;;;5006139;28;20386;-82
2024/01/17 03:18:32;;;;;;;21.40;13.23;;;-2.80;99.90;;;;;;5011278;28;20041;-83
2024/01/17 03:20:58;;;;;;;19.40;12.03;;;-2.70;99.90;;;;;;5012102;28;20026;-82
2024/01/17 03:23:23;;;;;;;23.40;13.27;;;-2.60;99.90;;;;;;5008832;28;20057;-82
2024/01/17 03:25:49;;;;;;;22.87;12.67;;;-2.50;99.90;;;;;;5005030;28;20144;-83
2024/01/17 03:28:14;;;;;;;24.03;13.93;;;-2.50;99.90;;;;;;5006328;28;20034;-83
2024/01/17 03:30:40;;;;;;;21.30;12.93;;;-2.30;99.90;;;;;;5008868;28;20065;-81
2024/01/17 03:33:05;;;;;;;26.90;14.40;;;-2.30;99.90;;;;;;5006777;28;20093;-82
2024/01/17 03:35:31;;;;;;;21.63;14.17;;;-2.20;99.90;;;;;;5003138;28;20041;-82
2024/01/17 03:37:57;;;;;;;28.07;15.17;;;-2.20;99.90;;;;;;5007673;28;20030;-84
2024/01/17 03:40:23;;;;;;;24.13;13.43;;;-2.10;99.90;;;;;;5007296;28;20099;-82
2024/01/17 03:42:48;;;;;;;26.37;14.77;;;-2.10;99.90;;;;;;4988686;28;20041;-83
2024/01/17 03:45:14;;;;;;;23.33;14.50;;;-2.00;99.90;;;;;;5003830;28;20028;-82
2024/01/17 03:47:39;;;;;;;22.83;13.87;;;-2.00;99.90;;;;;;5006900;28;20157;-83
2024/01/17 03:50:05;;;;;;;23.70;15.33;;;-1.90;99.90;;;;;;5009340;28;20018;-81
2024/01/17 03:52:31;;;;;;;24.37;15.37;;;-1.80;99.90;;;;;;5006769;28;20175;-82
2024/01/17 03:54:56;;;;;;;21.33;14.10;;;-1.80;99.90;;;;;;5003209;28;20026;-82
2024/01/17 03:57:22;;;;;;;26.37;14.97;;;-1.80;99.90;;;;;;5003934;28;21423;-82
2024/01/17 03:59:48;;;;;;;24.30;14.57;;;-1.70;99.90;;;;;;5006625;28;20525;-82
2024/01/17 04:02:13;;;;;;;23.50;15.27;;;-1.60;99.90;;;;;;5007852;28;20089;-82
2024/01/17 04:04:40;;;;;;;33.40;16.27;;;-1.60;99.90;;;;;;5001322;28;20029;-82
2024/01/17 04:07:07;;;;;;;21.73;14.20;;;-1.60;99.90;;;;;;4989719;28;20025;-82
2024/01/17 04:09:32;;;;;;;28.57;14.93;;;-1.60;99.90;;;;;;5007316;28;20030;-82
2024/01/17 04:11:58;;;;;;;22.90;14.83;;;-1.50;99.90;;;;;;5006592;28;20068;-82
2024/01/17 04:14:23;;;;;;;25.73;13.17;;;-1.50;99.90;;;;;;5006610;28;20041;-83
2024/01/17 04:16:49;;;;;;;31.47;14.83;;;-1.50;99.90;;;;;;5002466;28;20030;-83
2024/01/17 04:19:14;;;;;;;23.07;14.30;;;-1.40;99.90;;;;;;5005185;28;20037;-82
2024/01/17 04:21:40;;;;;;;26.00;14.60;;;-1.40;99.90;;;;;;5006268;28;20037;-82
2024/01/17 04:24:05;;;;;;;26.33;16.03;;;-1.40;99.90;;;;;;5007084;28;20029;-82
2024/01/17 04:26:31;;;;;;;24.43;15.20;;;-1.30;99.90;;;;;;5005511;28;20032;-82
2024/01/17 04:28:56;;;;;;;28.67;15.93;;;-1.30;99.90;;;;;;5005243;28;20181;-82
2024/01/17 04:31:27;;;;;;;35.50;16.33;;;-1.20;99.90;;;;;;5005591;28;20457;-82
2024/01/17 04:33:53;;;;;;;26.63;13.57;;;-1.20;99.90;;;;;;5004472;28;20038;-82
2024/01/17 04:36:21;;;;;;;31.17;15.57;;;-1.20;99.90;;;;;;4987657;28;20057;-82
2024/01/17 04:38:46;;;;;;;26.30;15.30;;;-1.10;99.90;;;;;;5004716;28;20797;-83
2024/01/17 04:41:13;;;;;;;30.47;13.40;;;-1.10;99.90;;;;;;5005669;28;20052;-83
2024/01/17 04:43:40;;;;;;;22.07;12.73;;;-1.00;99.90;;;;;;5005452;28;20516;-83
2024/01/17 04:46:08;;;;;;;24.60;13.70;;;-1.00;99.90;;;;;;5005820;28;20060;-83
2024/01/17 04:48:34;;;;;;;26.40;15.17;;;-0.90;99.90;;;;;;5000126;28;20018;-85
2024/01/17 04:51:00;;;;;;;18.57;12.40;;;-0.90;99.90;;;;;;5005983;28;20092;-85
2024/01/17 04:53:25;;;;;;;20.97;12.70;;;-0.80;99.90;;;;;;5002920;28;20024;-84
2024/01/17 04:55:51;;;;;;;23.30;13.50;;;-0.80;99.90;;;;;;5005851;28;20125;-84
2024/01/17 04:58:17;;;;;;;18.23;12.13;;;-0.80;99.90;;;;;;5004101;28;20026;-84
2024/01/17 05:00:46;;;;;;;22.13;11.80;;;-0.70;99.90;;;;;;4984867;28;20147;-84
2024/01/17 05:03:12;;;;;;;23.33;11.13;;;-0.70;99.90;;;;;;5005651;28;20125;-85
2024/01/17 05:05:37;;;;;;;17.63;10.13;;;-0.60;99.90;;;;;;5005490;28;20105;-84
2024/01/17 05:08:03;;;;;;;17.93;9.83;;;-0.60;99.90;;;;;;5006130;28;20038;-84
2024/01/17 05:10:29;;;;;;;13.47;8.77;;;-0.60;99.90;;;;;;5003649;28;20030;-84
2024/01/17 05:12:54;;;;;;;13.87;7.33;;;-0.50;99.90;;;;;;5006813;28;20033;-85
2024/01/17 05:15:20;;;;;;;15.83;7.10;;;-0.50;99.90;;;;;;4989312;28;20072;-84
2024/01/17 05:17:46;;;;;;;12.70;7.07;;;-0.50;99.90;;;;;;5004407;28;20899;-85
2024/01/17 05:20:13;;;;;;;16.03;7.20;;;-0.40;99.90;;;;;;4988048;28;20255;-84
2024/01/17 05:22:39;;;;;;;17.20;7.57;;;-0.40;99.90;;;;;;5005222;28;20036;-85
2024/01/17 05:25:08;;;;;;;22.47;9.77;;;-0.40;99.90;;;;;;5006563;28;20030;-89
2024/01/17 05:27:33;;;;;;;27.70;12.00;;;-0.30;99.90;;;;;;5012634;28;20034;-87
2024/01/17 05:29:59;;;;;;;25.00;12.37;;;-0.30;99.90;;;;;;5009312;28;20068;-87
2024/01/17 05:32:25;;;;;;;22.83;9.97;;;-0.30;99.90;;;;;;5005872;28;20038;-87
2024/01/17 05:34:53;;;;;;;19.63;10.70;;;-0.30;99.90;;;;;;5010182;28;20132;-78
2024/01/17 05:37:21;;;;;;;20.37;9.40;;;-0.20;99.90;;;;;;5002474;28;20061;-79
2024/01/17 05:39:47;;;;;;;15.97;8.33;;;-0.20;99.90;;;;;;5004866;28;20501;-79
2024/01/17 05:42:13;;;;;;;20.40;8.50;;;-0.20;99.90;;;;;;5004120;28;20112;-79
2024/01/17 05:44:38;;;;;;;13.17;6.93;;;-0.20;99.90;;;;;;5006166;28;21722;-79
2024/01/17 05:47:04;;;;;;;26.53;11.80;;;-0.10;99.90;;;;;;5007718;28;20147;-78
2024/01/17 05:49:30;;;;;;;42.67;28.50;;;-0.10;99.90;;;;;;5004305;28;20042;-69
2024/01/17 05:51:56;;;;;;;35.53;24.80;;;-0.10;99.90;;;;;;4997696;28;20028;-69
2024/01/17 05:54:21;;;;;;;30.33;22.00;;;-0.10;99.90;;;;;;5005101;28;20180;-80
2024/01/17 05:56:47;;;;;;;21.93;10.43;;;-0.10;99.90;;;;;;5006180;28;20121;-84
2024/01/17 05:59:13;;;;;;;15.47;11.10;;;-0.10;99.90;;;;;;4999058;28;21551;-71
2024/01/17 06:01:39;;;;;;;18.40;10.33;;;-0.10;99.90;;;;;;5000941;28;20121;-83
2024/01/17 06:04:06;;;;;;;22.33;14.47;;;-0.10;99.90;;;;;;5003243;28;20113;-86
2024/01/17 06:06:31;;;;;;;14.30;7.30;;;0.00;99.90;;;;;;5005541;28;20060;-84
2024/01/17 06:08:57;;;;;;;20.40;11.63;;;-0.10;99.90;;;;;;4987870;28;20057;-86
2024/01/17 06:11:23;;;;;;;15.97;8.80;;;0.00;99.90;;;;;;5007149;28;20060;-85
2024/01/17 06:13:48;;;;;;;14.33;8.03;;;0.00;99.90;;;;;;5002854;28;21662;-88
2024/01/17 06:16:14;;;;;;;14.73;7.43;;;0.00;99.90;;;;;;4988201;28;20080;-84
2024/01/17 06:18:39;;;;;;;19.40;9.40;;;0.00;99.90;;;;;;5007429;28;20022;-85
2024/01/17 06:21:05;;;;;;;19.20;9.63;;;0.00;99.90;;;;;;5010075;28;20037;-85
2024/01/17 06:23:30;;;;;;;17.43;9.33;;;0.00;99.90;;;;;;5014324;28;20041;-86
2024/01/17 06:25:57;;;;;;;13.67;8.97;;;0.00;99.90;;;;;;5013925;28;20026;-85
2024/01/17 06:28:22;;;;;;;17.13;9.93;;;0.00;99.90;;;;;;5014537;28;20105;-85
2024/01/17 06:30:48;;;;;;;16.53;8.70;;;0.00;99.90;;;;;;5015838;28;20026;-84
2024/01/17 06:33:13;;;;;;;15.07;7.70;;;0.10;99.90;;;;;;5015226;28;20040;-87
2024/01/17 06:35:39;;;;;;;17.23;7.53;;;0.10;99.90;;;;;;5015319;28;20041;-86
2024/01/17 06:38:04;;;;;;;16.17;7.77;;;0.10;99.90;;;;;;5015110;28;20045;-86
2024/01/17 06:40:30;;;;;;;12.87;6.23;;;0.10;99.90;;;;;;5013864;28;20042;-89
2024/01/17 06:42:56;;;;;;;17.37;7.10;;;0.10;99.90;;;;;;5013965;28;20498;-89
2024/01/17 06:45:21;;;;;;;16.00;7.50;;;0.10;99.90;;;;;;5016056;28;20057;-88
2024/01/17 06:47:47;;;;;;;17.30;7.10;;;0.10;99.90;;;;;;5007693;28;20030;-85
2024/01/17 06:50:14;;;;;;;14.80;5.77;;;0.10;99.90;;;;;;4989736;28;20092;-84
2024/01/17 06:52:39;;;;;;;12.10;6.43;;;0.10;99.90;;;;;;5008828;28;20018;-86
2024/01/17 06:55:05;;;;;;;15.33;6.20;;;0.20;99.90;;;;;;5008142;28;20124;-87
2024/01/17 06:57:31;;;;;;;15.00;7.90;;;0.20;99.90;;;;;;5007442;28;20428;-84
2024/01/17 06:59:56;;;;;;;19.43;11.20;;;0.20;99.90;;;;;;5008439;28;20057;-85
2024/01/17 07:02:22;;;;;;;18.53;9.13;;;0.20;99.90;;;;;;5007809;28;20034;-84
2024/01/17 07:04:47;;;;;;;15.80;8.67;;;0.20;99.90;;;;;;5008619;28;20029;-87
2024/01/17 07:07:13;;;;;;;13.47;6.87;;;0.20;99.90;;;;;;5003689;28;20045;-84
2024/01/17 07:09:39;;;;;;;10.47;5.83;;;0.30;99.90;;;;;;5003282;28;20033;-83
2024/01/17 07:12:05;;;;;;;15.17;5.60;;;0.30;99.90;;;;;;5004531;28;20096;-83
2024/01/17 07:14:30;;;;;;;9.73;5.40;;;0.30;99.90;;;;;;5003703;28;20068;-85
2024/01/17 07:16:57;;;;;;;15.57;5.60;;;0.30;99.90;;;;;;5002662;28;20160;-84
2024/01/17 07:19:23;;;;;;;10.30;5.60;;;0.30;99.90;;;;;;5003297;28;20369;-83
2024/01/17 07:21:48;;;;;;;10.53;5.40;;;0.30;99.90;;;;;;5003644;28;20042;-83
2024/01/17 07:24:14;;;;;;;15.00;7.13;;;0.30;99.90;;;;;;5004458;28;20029;-83
2024/01/17 07:26:39;;;;;;;9.73;5.97;;;0.30;99.90;;;;;;5002654;28;21052;-84
2024/01/17 07:29:05;;;;;;;10.20;6.50;;;0.30;99.90;;;;;;5005384;28;20030;-82
2024/01/17 07:31:31;;;;;;;12.33;5.70;;;0.30;99.90;;;;;;5004266;28;20108;-83
2024/01/17 07:33:56;;;;;;;13.13;5.87;;;0.40;99.90;;;;;;5000101;28;20033;-81
2024/01/17 07:36:23;;;;;;;12.23;5.60;;;0.30;99.90;;;;;;5001869;28;20034;-82
2024/01/17 07:38:49;;;;;;;13.30;7.07;;;0.40;99.90;;;;;;5003301;28;20030;-82
2024/01/17 07:41:14;;;;;;;11.43;5.77;;;0.40;99.90;;;;;;5003574;28;20027;-82
2024/01/17 07:43:40;;;;;;;24.27;6.73;;;0.40;99.90;;;;;;5005244;28;20831;-82
2024/01/17 07:46:05;;;;;;;9.97;5.73;;;0.40;99.90;;;;;;5009351;28;20525;-81
2024/01/17 07:48:31;;;;;;;11.70;5.30;;;0.50;99.90;;;;;;5012039;28;20036;-82
2024/01/17 07:50:57;;;;;;;10.80;5.80;;;0.50;99.90;;;;;;5006922;28;20080;-81
2024/01/17 07:53:24;;;;;;;15.10;6.03;;;0.50;99.90;;;;;;5009907;28;20030;-85
2024/01/17 07:55:49;;;;;;;22.77;6.37;;;0.50;99.90;;;;;;5012512;28;20031;-83
2024/01/17 07:58:16;;;;;;;12.90;5.20;;;0.60;99.90;;;;;;5011907;28;20029;-86
2024/01/17 08:00:43;;;;;;;13.70;7.20;;;0.60;99.90;;;;;;5011061;28;21739;-82
2024/01/17 08:03:09;;;;;;;19.73;5.83;;;0.60;99.90;;;;;;5010307;28;20093;-87
2024/01/17 08:05:34;;;;;;;15.47;5.97;;;0.70;99.90;;;;;;5010037;28;20042;-89
2024/01/17 08:08:00;;;;;;;12.23;5.47;;;0.70;99.90;;;;;;5009205;28;20079;-87
2024/01/17 08:10:26;;;;;;;10.20;5.30;;;0.80;99.90;;;;;;5009860;28;20097;-84
2024/01/17 08:12:51;;;;;;;15.70;6.63;;;0.80;99.90;;;;;;5010769;28;20026;-84
2024/01/17 08:15:17;;;;;;;15.77;6.57;;;0.80;99.90;;;;;;5010645;28;20038;-86
2024/01/17 08:17:44;;;;;;;14.93;5.93;;;0.80;99.90;;;;;;5009010;28;20033;-85
2024/01/17 08:20:12;;;;;;;13.20;6.10;;;0.90;99.90;;;;;;5009561;28;20028;-85
2024/01/17 08:22:39;;;;;;;12.53;6.90;;;0.90;99.90;;;;;;5010343;28;20088;-85
2024/01/17 08:25:05;;;;;;;14.13;6.77;;;0.90;99.90;;;;;;5010215;28;20381;-88
2024/01/17 08:27:30;;;;;;;15.47;7.70;;;1.00;99.90;;;;;;5010650;28;20026;-85
2024/01/17 08:29:56;;;;;;;16.03;8.57;;;1.00;99.90;;;;;;5010485;28;20033;-87
2024/01/17 08:32:21;;;;;;;18.80;8.23;;;1.00;99.90;;;;;;5009135;28;20041;-85
2024/01/17 08:34:47;;;;;;;19.97;9.30;;;1.00;99.90;;;;;;5011120;28;20045;-86
2024/01/17 08:37:13;;;;;;;19.40;8.57;;;1.00;99.90;;;;;;5010172;28;20022;-86
2024/01/17 08:39:41;;;;;;;17.30;7.70;;;1.00;99.90;;;;;;5010617;28;20111;-85
2024/01/17 08:42:07;;;;;;;21.13;8.57;;;1.00;99.90;;;;;;5010276;28;20029;-86
2024/01/17 08:44:32;;;;;;;17.03;7.93;;;1.00;99.90;;;;;;5010680;28;20097;-85
2024/01/17 08:46:58;;;;;;;21.97;8.53;;;1.00;99.90;;;;;;5011504;28;20439;-86
2024/01/17 08:49:24;;;;;;;19.93;7.80;;;1.00;99.90;;;;;;5009915;28;20034;-86
2024/01/17 08:51:50;;;;;;;12.10;6.50;;;1.00;99.90;;;;;;5011308;28;20057;-87
2024/01/17 08:54:16;;;;;;;13.27;6.80;;;1.00;99.90;;;;;;5008341;28;20041;-86
2024/01/17 08:56:42;;;;;;;12.77;6.03;;;1.00;99.90;;;;;;5009968;28;20030;-88
2024/01/17 08:59:07;;;;;;;13.27;5.90;;;1.00;99.90;;;;;;5013743;28;20037;-88
2024/01/17 09:01:33;;;;;;;17.70;6.33;;;1.00;99.90;;;;;;4996987;28;20065;-87
2024/01/17 09:03:59;;;;;;;13.37;5.97;;;1.00;99.90;;;;;;5011944;28;20037;-86
2024/01/17 09:06:24;;;;;;;13.10;6.93;;;1.00;99.90;;;;;;5013360;28;20034;-87
2024/01/17 09:08:50;;;;;;;14.30;6.40;;;1.00;99.90;;;;;;5013049;28;20044;-86
2024/01/17 09:11:16;;;;;;;15.20;5.20;;;1.00;99.90;;;;;;5012385;28;20165;-86
2024/01/17 09:13:42;;;;;;;14.43;5.47;;;1.00;99.90;;;;;;5011504;28;21999;-90
2024/01/17 09:16:07;;;;;;;15.87;5.60;;;1.10;99.90;;;;;;5012708;28;20029;-87
2024/01/17 09:18:33;;;;;;;14.07;6.67;;;1.10;99.90;;;;;;5006373;28;21329;-73
2024/01/17 09:20:59;;;;;;;12.37;5.33;;;1.10;99.90;;;;;;4998852;28;20577;-84
2024/01/17 09:23:24;;;;;;;18.93;6.20;;;1.10;99.90;;;;;;4995495;28;20030;-84
2024/01/17 09:25:50;;;;;;;10.27;4.37;;;1.10;99.90;;;;;;4998999;28;20034;-86
2024/01/17 09:28:15;;;;;;;8.70;4.50;;;1.10;99.90;;;;;;4998509;28;20037;-84
2024/01/17 09:30:41;;;;;;;13.77;4.30;;;1.10;99.90;;;;;;4999526;28;20033;-84
2024/01/17 09:33:06;;;;;;;9.87;4.27;;;1.10;99.90;;;;;;4996516;28;20034;-85
2024/01/17 09:35:32;;;;;;;17.43;4.30;;;1.10;99.90;;;;;;4998572;28;20038;-84
2024/01/17 09:37:58;;;;;;;16.00;4.70;;;1.10;99.90;;;;;;4997318;28;20036;-84
2024/01/17 09:40:23;;;;;;;8.63;3.90;;;1.20;99.90;;;;;;4998278;28;20127;-83
2024/01/17 09:42:50;;;;;;;24.97;6.77;;;1.10;99.90;;;;;;4997063;28;20052;-85
2024/01/17 09:45:17;;;;;;;17.00;5.80;;;1.20;99.90;;;;;;4981250;28;20030;-83
2024/01/17 09:47:44;;;;;;;10.53;4.33;;;1.20;99.90;;;;;;4997972;28;20034;-84
2024/01/17 09:50:10;;;;;;;18.43;4.43;;;1.20;99.90;;;;;;4997455;28;20032;-84
2024/01/17 09:52:39;;;;;;;10.73;4.40;;;1.20;99.90;;;;;;4998543;28;20096;-85
2024/01/17 09:55:06;;;;;;;17.43;6.50;;;1.20;99.90;;;;;;4978931;28;20033;-85
2024/01/17 09:57:38;;;;;;;23.97;7.90;;;1.20;99.90;;;;;;5002272;28;20041;-85
2024/01/17 10:00:10;;;;;;;16.70;5.90;;;1.20;99.90;;;;;;5002857;28;20026;-84
2024/01/17 10:02:38;;;;;;;21.40;6.77;;;1.30;99.90;;;;;;4983388;28;21000;-84
2024/01/17 10:05:09;;;;;;;13.43;5.10;;;1.30;99.90;;;;;;5001073;28;20668;-85
2024/01/17 10:07:36;;;;;;;22.23;5.93;;;1.30;99.90;;;;;;5002264;28;20256;-85
2024/01/17 10:10:01;;;;;;;18.00;5.03;;;1.30;99.90;;;;;;5002774;28;20032;-84
2024/01/17 10:12:27;;;;;;;14.63;5.27;;;1.30;99.90;;;;;;5002008;28;20481;-85
2024/01/17 10:14:52;;;;;;;16.27;5.47;;;1.30;99.90;;;;;;4999515;28;21379;-85
2024/01/17 10:17:19;;;;;;;18.27;6.67;;;1.30;99.90;;;;;;5001796;28;20025;-83
2024/01/17 10:19:44;;;;;;;17.27;5.97;;;1.30;99.90;;;;;;5003190;28;20511;-84
2024/01/17 10:22:11;;;;;;;14.60;6.73;;;1.30;99.90;;;;;;5000791;28;20125;-83
2024/01/17 10:24:38;;;;;;;15.07;7.73;;;1.30;99.90;;;;;;5000478;28;20030;-85
2024/01/17 10:27:06;;;;;;;18.50;8.07;;;1.30;99.90;;;;;;4999293;28;20030;-82
2024/01/17 10:29:32;;;;;;;14.20;7.00;;;1.30;99.90;;;;;;5001088;28;20079;-84
2024/01/17 10:31:59;;;;;;;17.40;8.03;;;1.30;99.90;;;;;;5000186;28;20037;-85
2024/01/17 10:34:30;;;;;;;14.60;8.40;;;1.30;99.90;;;;;;4999938;28;20815;-84
2024/01/17 10:36:56;;;;;;;15.43;9.20;;;1.30;99.90;;;;;;5000367;28;20145;-85
2024/01/17 10:39:23;;;;;;;13.70;11.20;;;1.30;99.90;;;;;;5000293;28;20168;-85
2024/01/17 10:41:51;;;;;;;18.27;8.57;;;1.30;99.90;;;;;;5000044;28;20132;-84
2024/01/17 10:44:25;;;;;;;15.60;7.27;;;1.30;99.90;;;;;;4998972;28;20037;-84
2024/01/17 10:46:51;;;;;;;18.27;6.30;;;1.40;99.90;;;;;;5000325;28;20030;-84
2024/01/17 10:49:17;;;;;;;12.27;6.30;;;1.40;99.90;;;;;;5000598;28;20030;-84
2024/01/17 10:52:02;;;;;;;9.90;5.70;;;1.40;99.90;;;;;;5000725;28;20088;-84
2024/01/17 10:54:45;;;;;;;11.70;5.95;;;1.40;99.90;;;;;;4981612;28;20030;-84
2024/01/17 10:57:14;;;;;;;18.43;9.90;;;1.40;99.90;;;;;;5000925;28;20103;-84
2024/01/17 10:59:49;;;;;;;11.63;7.40;;;1.40;99.90;;;;;;5000923;28;20041;-84
2024/01/17 11:02:24;;;;;;;11.07;6.68;;;1.40;99.90;;;;;;5001425;28;20029;-85
2024/01/17 11:04:55;;;;;;;;;;;1.40;99.90;;;;;;4999784;28;20370;-84
2024/01/17 11:07:22;;;;;;;11.23;6.67;;;1.40;99.90;;;;;;5000890;28;19917;-84
2024/01/17 11:09:48;;;;;;;19.37;7.60;;;1.40;99.90;;;;;;4984480;28;20022;-84
2024/01/17 11:12:18;;;;;;;9.43;6.40;;;1.50;99.90;;;;;;5001448;28;20034;-84
2024/01/17 11:14:46;;;;;;;12.63;6.80;;;1.40;99.90;;;;;;4999608;28;20030;-84
2024/01/17 11:17:13;;;;;;;13.27;6.30;;;1.50;99.90;;;;;;5001017;28;20113;-84
2024/01/17 11:19:40;;;;;;;12.07;6.40;;;1.50;99.90;;;;;;5000078;28;21416;-83
2024/01/17 11:22:06;;;;;;;9.80;5.50;;;1.50;99.90;;;;;;5001562;28;20021;-84
2024/01/17 11:24:43;;;;;;;10.70;5.90;;;1.60;99.90;;;;;;5002863;28;20072;-85
2024/01/17 11:27:22;;;;;;;9.87;6.27;;;1.60;99.90;;;;;;5000493;28;20041;-84
2024/01/17 11:30:17;;;;;;;11.17;6.57;;;1.60;99.90;;;;;;4999141;28;20033;-84
2024/01/17 11:33:10;;;;;;;12.87;6.00;;;1.70;99.90;;;;;;5000667;28;20037;-85
2024/01/17 11:35:46;;;;;;;9.10;5.57;;;1.70;99.90;;;;;;5001903;28;20285;-84
2024/01/17 11:38:24;;;;;;;10.97;6.37;;;1.70;99.90;;;;;;4999183;28;20022;-85
2024/01/17 11:41:06;;;;;;;9.73;5.70;;;1.80;99.90;;;;;;5002053;28;20025;-85
2024/01/17 11:43:39;;;;;;;10.33;5.90;;;1.80;99.90;;;;;;4986178;28;20025;-85
2024/01/17 11:46:08;;;;;;;7.33;4.93;;;1.80;99.90;;;;;;5002705;28;21357;-85
2024/01/17 11:48:34;;;;;;;8.30;5.70;;;1.90;99.90;;;;;;5001069;28;20033;-84
2024/01/17 11:51:14;;;;;;;9.73;5.00;;;1.90;99.90;;;;;;5000690;28;20091;-84
2024/01/17 11:53:46;;;;;;;12.37;5.37;;;2.00;99.90;;;;;;4999779;28;20038;-85
2024/01/17 11:56:13;;;;;;;12.00;6.07;;;2.00;99.90;;;;;;4998416;28;20030;-85
2024/01/17 11:58:43;;;;;;;8.53;5.63;;;2.00;99.90;;;;;;4995813;28;20076;-85
2024/01/17 12:01:14;;;;;;;12.80;6.20;;;2.10;99.90;;;;;;4999343;28;20036;-84
2024/01/17 12:03:41;;;;;;;10.27;5.40;;;2.10;99.90;;;;;;4994654;28;20034;-84
2024/01/17 12:06:08;;;;;;;8.40;5.10;;;2.10;99.90;;;;;;4998874;28;20072;-85
2024/01/17 12:08:36;;;;;;;7.57;4.77;;;2.20;99.90;;;;;;4998572;28;20121;-84
2024/01/17 12:11:01;;;;;;;9.13;4.47;;;2.20;99.90;;;;;;5000047;28;20038;-85
2024/01/17 12:13:27;;;;;;;9.03;5.30;;;2.20;99.90;;;;;;4999666;28;20026;-84
2024/01/17 12:15:57;;;;;;;14.00;7.87;;;2.30;99.90;;;;;;4999697;28;20041;-84
2024/01/17 12:18:24;;;;;;;16.97;9.37;;;2.30;99.90;;;;;;4997019;28;20121;-84
2024/01/17 12:20:56;;;;;;;9.87;5.77;;;2.40;99.90;;;;;;4998757;28;20029;-83
2024/01/17 12:23:23;;;;;;;5.97;3.70;;;2.40;99.90;;;;;;4998750;28;20979;-84
2024/01/17 12:25:49;;;;;;;9.73;4.60;;;2.50;99.90;;;;;;4999322;28;20029;-85
2024/01/17 12:28:25;;;;;;;11.27;5.67;;;2.60;99.90;;;;;;4999042;28;20029;-84
2024/01/17 12:31:02;;;;;;;7.67;4.23;;;2.60;99.90;;;;;;4982070;28;20508;-84
2024/01/17 12:33:35;;;;;;;8.87;4.70;;;2.60;99.90;;;;;;4998471;28;20037;-85
2024/01/17 12:36:02;;;;;;;9.57;4.40;;;2.60;99.90;;;;;;4981685;28;20543;-85